Time;durP1;ratioP1;P1;durP2;ratioP2;P2;SDS_P1;SDS_P2;PMS_P1;PMS_P2;Temp;Humidity;BMP_temperature;BMP_pressure;BME280_temperature;BME280_humidity;BME280_pressure;Samples;Min_cycle;Max_cycle;Signal;HPM_P1;HPM_P2
2022/02/06 00:02:19;;;;;;;;;;;16.40;34.80;;;;;;8334375;28;19917;-52
2022/02/06 00:06:19;;;;;;;;;;;16.40;34.80;;;;;;8334134;28;19925;-52
2022/02/06 00:10:20;;;;;;;;;;;16.40;34.80;;;;;;8333296;28;19924;-53
2022/02/06 00:14:21;;;;;;;;;;;16.40;34.80;;;;;;8334128;28;19948;-52
2022/02/06 00:18:21;;;;;;;;;;;16.40;34.80;;;;;;8333473;28;19952;-53
2022/02/06 00:22:39;;;;;;;;;;;16.40;34.90;;;;;;8333000;28;19996;-51
2022/02/06 00:26:53;;;;;;;;;;;16.40;34.80;;;;;;8333394;28;19929;-50
2022/02/06 00:35:25;;;;;;;;;;;16.30;34.70;;;;;;8332703;28;19925;-53
2022/02/06 00:39:26;;;;;;;;;;;16.30;34.70;;;;;;8332310;28;20338;-52
2022/02/06 00:43:26;;;;;;;;;;;16.30;34.80;;;;;;8317296;28;20081;-51
2022/02/06 00:47:28;;;;;;;;;;;16.30;34.70;;;;;;8322015;28;19923;-54
2022/02/06 00:51:42;;;;;;;;;;;16.30;34.70;;;;;;8332695;28;20247;-50
2022/02/06 00:55:43;;;;;;;;;;;16.30;34.80;;;;;;8331961;28;19929;-51
2022/02/06 00:59:44;;;;;;;;;;;16.30;34.80;;;;;;8332406;28;19967;-53
2022/02/06 01:03:45;;;;;;;;;;;16.30;34.80;;;;;;8332202;28;19921;-49
2022/02/06 01:07:47;;;;;;;;;;;16.30;34.80;;;;;;8331524;28;20294;-50
2022/02/06 01:11:50;;;;;;;;;;;16.30;34.80;;;;;;8332230;28;19972;-52
2022/02/06 01:15:57;;;;;;;;;;;16.30;34.80;;;;;;8331055;28;20070;-49
2022/02/06 01:20:35;;;;;;;;;;;16.20;34.80;;;;;;8331556;28;19960;-53
2022/02/06 01:28:46;;;;;;;;;;;16.20;34.80;;;;;;8331971;28;20384;-49
2022/02/06 01:32:55;;;;;;;;;;;16.20;34.80;;;;;;8336291;28;19948;-53
2022/02/06 01:37:07;;;;;;;;;;;16.20;34.80;;;;;;8334595;28;19917;-50
2022/02/06 01:41:17;;;;;;;;;;;16.20;34.80;;;;;;8330917;28;19917;-52
2022/02/06 02:15:25;;;;;;;;;;;16.20;34.80;;;;;;8330638;28;19931;-53
2022/02/06 02:27:57;;;;;;;;;;;16.20;34.90;;;;;;8330551;28;19921;-54
2022/02/06 02:48:56;;;;;;;;;;;16.30;34.80;;;;;;8333586;28;19996;-53
2022/02/06 02:53:08;;;;;;;;;;;16.30;34.70;;;;;;8329097;28;20431;-56
2022/02/06 02:57:20;;;;;;;;;;;16.30;34.70;;;;;;8331649;28;19931;-52
2022/02/06 03:05:27;;;;;;;;;;;16.30;34.70;;;;;;8338373;28;19921;-50
2022/02/06 03:09:33;;;;;;;;;;;16.30;34.70;;;;;;8335928;28;19917;-49
2022/02/06 03:13:45;;;;;;;;;;;16.30;34.70;;;;;;8336538;28;19925;-49
2022/02/06 03:17:56;;;;;;;;;;;16.30;34.70;;;;;;8338291;28;19956;-52
2022/02/06 03:21:58;;;;;;;;;;;16.30;34.70;;;;;;8338633;28;19996;-49
2022/02/06 03:25:58;;;;;;;;;;;16.30;34.80;;;;;;8334771;28;19963;-53
2022/02/06 03:29:58;;;;;;;;;;;16.30;34.80;;;;;;8335389;28;19935;-52
2022/02/06 03:33:59;;;;;;;;;;;16.20;34.70;;;;;;8334778;28;19983;-50
2022/02/06 03:38:00;;;;;;;;;;;16.20;34.70;;;;;;8334300;28;19925;-51
2022/02/06 03:42:10;;;;;;;;;;;16.20;34.70;;;;;;8334869;28;19913;-52
2022/02/06 03:46:15;;;;;;;;;;;16.20;34.80;;;;;;8334151;28;19917;-50
2022/02/06 03:50:17;;;;;;;;;;;16.20;34.70;;;;;;8334602;28;19913;-54
2022/02/06 03:54:18;;;;;;;;;;;16.20;34.80;;;;;;8334404;28;20063;-54
2022/02/06 03:58:18;;;;;;;;;;;16.20;34.70;;;;;;8333669;28;20396;-49
2022/02/06 04:02:19;;;;;;;;;;;16.20;34.80;;;;;;8334292;28;19927;-52
2022/02/06 04:06:20;;;;;;;;;;;16.20;34.80;;;;;;8334129;28;20538;-51
2022/02/06 04:10:21;;;;;;;;;;;16.20;34.80;;;;;;8333752;28;19963;-50
2022/02/06 04:18:35;;;;;;;;;;;16.10;34.80;;;;;;8333996;28;19913;-53
2022/02/06 04:22:36;;;;;;;;;;;16.20;34.90;;;;;;8334703;28;20008;-50
2022/02/06 04:26:36;;;;;;;;;;;16.10;34.80;;;;;;8333607;28;19914;-53
2022/02/06 04:30:37;;;;;;;;;;;16.10;34.80;;;;;;8333644;28;19917;-52
2022/02/06 04:34:37;;;;;;;;;;;16.10;34.80;;;;;;8332771;28;19932;-54
2022/02/06 04:38:56;;;;;;;;;;;16.10;34.80;;;;;;8333361;28;20402;-50
2022/02/06 05:33:47;;;;;;;;;;;16.10;34.70;;;;;;8302546;28;19960;-54
2022/02/06 05:37:47;;;;;;;;;;;16.20;34.80;;;;;;8298199;28;19925;-50
2022/02/06 05:41:48;;;;;;;;;;;16.10;34.80;;;;;;8298485;28;19914;-52
2022/02/06 05:45:48;;;;;;;;;;;16.20;34.80;;;;;;8298802;28;19913;-52
2022/02/06 05:49:49;;;;;;;;;;;16.10;34.80;;;;;;8280263;28;19918;-50
2022/02/06 05:53:50;;;;;;;;;;;16.10;34.80;;;;;;8298471;28;19930;-51
2022/02/06 05:57:50;;;;;;;;;;;16.10;34.90;;;;;;8298185;28;19918;-51
2022/02/06 06:01:51;;;;;;;;;;;16.10;34.90;;;;;;8297689;28;19952;-52
2022/02/06 06:05:51;;;;;;;;;;;16.10;34.80;;;;;;8298406;28;19921;-55
2022/02/06 06:09:52;;;;;;;;;;;16.10;34.80;;;;;;8298020;28;19917;-54
2022/02/06 06:13:52;;;;;;;;;;;16.10;34.80;;;;;;8297184;28;19972;-53
2022/02/06 06:17:54;;;;;;;;;;;16.10;34.80;;;;;;8297850;28;19914;-51
2022/02/06 06:21:57;;;;;;;;;;;16.10;34.80;;;;;;8298094;28;19917;-51
2022/02/06 06:25:57;;;;;;;;;;;16.10;34.90;;;;;;8296894;28;19981;-53
2022/02/06 06:29:58;;;;;;;;;;;16.10;34.90;;;;;;8280015;28;19964;-51
2022/02/06 06:33:58;;;;;;;;;;;16.10;34.80;;;;;;8297376;28;19991;-50
2022/02/06 06:38:00;;;;;;;;;;;16.00;34.90;;;;;;8280340;28;19943;-54
2022/02/06 06:42:00;;;;;;;;;;;16.00;34.80;;;;;;8304676;28;20392;-51
2022/02/06 06:46:01;;;;;;;;;;;16.00;34.80;;;;;;8303999;28;20020;-54
2022/02/06 06:50:03;;;;;;;;;;;16.00;34.80;;;;;;8303325;28;19918;-54
2022/02/06 06:54:11;;;;;;;;;;;16.00;34.80;;;;;;8303746;28;19980;-50
2022/02/06 06:58:17;;;;;;;;;;;16.00;34.80;;;;;;8305723;28;20458;-51
2022/02/06 07:02:27;;;;;;;;;;;16.00;34.80;;;;;;8303770;28;19913;-55
2022/02/06 07:06:27;;;;;;;;;;;16.00;34.80;;;;;;8303089;28;19925;-54
2022/02/06 07:10:28;;;;;;;;;;;16.10;34.80;;;;;;8302446;28;19929;-52
2022/02/06 07:14:28;;;;;;;;;;;16.00;34.80;;;;;;8303039;28;19926;-54
2022/02/06 07:18:29;;;;;;;;;;;16.00;34.80;;;;;;8303074;28;19913;-51
2022/02/06 07:22:34;;;;;;;;;;;16.00;34.80;;;;;;8302327;28;19941;-51
2022/02/06 07:26:35;;;;;;;;;;;16.00;34.80;;;;;;8302981;28;19924;-54
2022/02/06 07:30:35;;;;;;;;;;;16.00;34.80;;;;;;8302451;28;19922;-51
2022/02/06 07:34:36;;;;;;;;;;;16.10;34.80;;;;;;8301806;28;20344;-53
2022/02/06 07:38:36;;;;;;;;;;;16.00;34.80;;;;;;8284526;28;20462;-52
2022/02/06 07:42:36;;;;;;;;;;;16.10;34.80;;;;;;8302130;28;20394;-50
2022/02/06 07:46:43;;;;;;;;;;;16.00;34.70;;;;;;8301846;28;19922;-51
2022/02/06 07:50:45;;;;;;;;;;;16.10;34.80;;;;;;8304743;28;20432;-54
2022/02/06 07:54:46;;;;;;;;;;;16.00;34.80;;;;;;8301622;28;19921;-49
2022/02/06 07:58:46;;;;;;;;;;;16.00;34.80;;;;;;8301266;28;20091;-51
2022/02/06 08:02:47;;;;;;;;;;;16.00;34.80;;;;;;8302130;28;20367;-53
2022/02/06 08:06:48;;;;;;;;;;;16.00;34.80;;;;;;8300405;28;19922;-52
2022/02/06 08:10:49;;;;;;;;;;;16.00;34.80;;;;;;8300798;28;19918;-53
2022/02/06 08:14:51;;;;;;;;;;;16.10;34.80;;;;;;8301347;28;19937;-51
2022/02/06 08:18:52;;;;;;;;;;;16.10;34.80;;;;;;8301044;28;19964;-51
2022/02/06 08:22:52;;;;;;;;;;;16.10;35.30;;;;;;8300366;28;19918;-52
2022/02/06 08:26:53;;;;;;;;;;;16.10;35.00;;;;;;8301106;28;20004;-54
2022/02/06 08:30:53;;;;;;;;;;;16.00;34.70;;;;;;8300504;28;19918;-51
2022/02/06 08:34:54;;;;;;;;;;;16.00;34.80;;;;;;8299958;28;19996;-54
2022/02/06 08:38:54;;;;;;;;;;;16.10;34.80;;;;;;8300552;28;19914;-55
2022/02/06 08:42:55;;;;;;;;;;;16.10;34.80;;;;;;8300387;28;20001;-51
2022/02/06 08:46:55;;;;;;;;;;;16.10;34.80;;;;;;8299564;28;19917;-54
2022/02/06 08:50:56;;;;;;;;;;;16.10;34.80;;;;;;8299961;28;19971;-53
2022/02/06 08:54:56;;;;;;;;;;;16.10;34.80;;;;;;8299731;28;20346;-55
2022/02/06 08:58:57;;;;;;;;;;;16.10;34.80;;;;;;8299317;28;19917;-53
2022/02/06 09:02:57;;;;;;;;;;;16.10;34.80;;;;;;8299358;28;20056;-54
2022/02/06 09:07:01;;;;;;;;;;;16.10;34.80;;;;;;8299512;28;19917;-52
2022/02/06 09:11:01;;;;;;;;;;;16.10;34.80;;;;;;8298886;28;19924;-51
2022/02/06 09:15:02;;;;;;;;;;;16.10;34.80;;;;;;8299226;28;20008;-50
2022/02/06 09:19:03;;;;;;;;;;;16.10;34.80;;;;;;8299078;28;19924;-54
2022/02/06 09:23:03;;;;;;;;;;;16.10;34.90;;;;;;8298711;28;19913;-54
2022/02/06 09:27:04;;;;;;;;;;;16.10;34.80;;;;;;8298824;28;19917;-52
2022/02/06 09:31:04;;;;;;;;;;;16.10;34.80;;;;;;8298870;28;19925;-53
2022/02/06 09:39:08;;;;;;;;;;;16.10;34.80;;;;;;8299119;28;19924;-53
2022/02/06 09:43:08;;;;;;;;;;;16.10;34.80;;;;;;8298155;28;20362;-53
2022/02/06 09:47:09;;;;;;;;;;;16.10;34.80;;;;;;8298608;28;19918;-50
2022/02/06 09:51:10;;;;;;;;;;;16.10;34.80;;;;;;8298163;28;19922;-51
2022/02/06 09:55:17;;;;;;;;;;;16.10;34.80;;;;;;8297385;28;19933;-52
2022/02/06 09:59:20;;;;;;;;;;;16.10;34.80;;;;;;8298190;28;19943;-53
2022/02/06 10:03:21;;;;;;;;;;;16.10;34.80;;;;;;8298255;28;20004;-54
2022/02/06 10:07:37;;;;;;;;;;;16.20;34.80;;;;;;8297466;28;19933;-52
2022/02/06 10:11:44;;;;;;;;;;;16.20;34.80;;;;;;8298050;28;20367;-53
2022/02/06 10:15:44;;;;;;;;;;;16.20;34.80;;;;;;8299921;28;20295;-52
2022/02/06 10:19:49;;;;;;;;;;;16.20;34.70;;;;;;8297338;28;19917;-54
2022/02/06 10:24:02;;;;;;;;;;;16.20;34.80;;;;;;8297916;28;19913;-50
2022/02/06 10:32:12;;;;;;;;;;;16.20;34.80;;;;;;8297019;28;20336;-52
2022/02/06 10:36:14;;;;;;;;;;;16.20;34.80;;;;;;8297215;28;19926;-50
2022/02/06 10:40:16;;;;;;;;;;;16.20;34.80;;;;;;8296683;28;19924;-49
2022/02/06 10:44:18;;;;;;;;;;;16.20;34.70;;;;;;8297145;28;20386;-51
2022/02/06 10:48:20;;;;;;;;;;;16.20;34.70;;;;;;8297436;28;20389;-53
2022/02/06 10:52:25;;;;;;;;;;;16.20;34.70;;;;;;8296770;28;19918;-53
2022/02/06 10:56:26;;;;;;;;;;;16.20;34.70;;;;;;8296930;28;19926;-50
2022/02/06 11:00:26;;;;;;;;;;;16.20;34.70;;;;;;8296852;28;20409;-52
2022/02/06 11:04:32;;;;;;;;;;;16.20;34.70;;;;;;8296983;28;20009;-52
2022/02/06 11:08:35;;;;;;;;;;;16.20;34.70;;;;;;8303240;28;19913;-54
2022/02/06 11:12:35;;;;;;;;;;;16.20;34.80;;;;;;8296861;28;19951;-50
2022/02/06 11:16:41;;;;;;;;;;;16.20;34.70;;;;;;8296089;28;20378;-52
2022/02/06 11:21:04;;;;;;;;;;;16.20;34.80;;;;;;8296681;28;19928;-50
2022/02/06 11:25:06;;;;;;;;;;;16.20;34.80;;;;;;8299618;28;19968;-53
2022/02/06 11:29:07;;;;;;;;;;;16.20;34.80;;;;;;8302345;28;20000;-54
2022/02/06 11:33:07;;;;;;;;;;;16.20;34.80;;;;;;8302798;28;19929;-53
2022/02/06 11:46:11;;;;;;;;;;;16.20;34.70;;;;;;8303956;28;20059;-54
2022/02/06 11:50:13;;;;;;;;;;;16.20;34.70;;;;;;8334651;28;19921;-52
2022/02/06 11:54:26;;;;;;;;;;;16.20;34.70;;;;;;8334569;28;20329;-53
2022/02/06 11:58:30;;;;;;;;;;;16.20;34.70;;;;;;8334146;28;19922;-50
2022/02/06 12:02:32;;;;;;;;;;;16.20;34.70;;;;;;8334356;28;20015;-50
2022/02/06 12:06:39;;;;;;;;;;;16.30;34.70;;;;;;8334501;28;19921;-51
2022/02/06 12:10:48;;;;;;;;;;;16.20;34.70;;;;;;8333566;28;19917;-50
2022/02/06 12:15:09;;;;;;;;;;;16.30;34.70;;;;;;8333805;28;19925;-53
2022/02/06 12:19:26;;;;;;;;;;;16.30;34.70;;;;;;8333300;28;19995;-52
2022/02/06 12:23:37;;;;;;;;;;;16.20;34.70;;;;;;8333764;28;19917;-53
2022/02/06 12:27:37;;;;;;;;;;;16.30;34.70;;;;;;8333504;28;19943;-52
2022/02/06 12:31:47;;;;;;;;;;;16.30;34.70;;;;;;8332657;28;19917;-53
2022/02/06 12:40:11;;;;;;;;;;;16.30;34.70;;;;;;8335864;28;19956;-51
2022/02/06 12:44:15;;;;;;;;;;;16.30;34.70;;;;;;8292664;28;19921;-53
2022/02/06 12:48:19;;;;;;;;;;;16.30;34.70;;;;;;8331222;28;19963;-53
2022/02/06 12:52:20;;;;;;;;;;;16.30;34.70;;;;;;8332383;28;19917;-52
2022/02/06 12:56:27;;;;;;;;;;;16.30;34.70;;;;;;8332879;28;19968;-51
2022/02/06 13:00:36;;;;;;;;;;;16.30;34.70;;;;;;8332701;28;20395;-50
2022/02/06 13:04:42;;;;;;;;;;;16.30;34.70;;;;;;8332372;28;19952;-53
2022/02/06 13:08:42;;;;;;;;;;;16.30;34.70;;;;;;8339140;28;20373;-52
2022/02/06 13:12:54;;;;;;;;;;;16.30;34.60;;;;;;8332376;28;19921;-53
2022/02/06 13:17:18;;;;;;;;;;;16.30;34.70;;;;;;8332239;28;19921;-51
2022/02/06 13:21:32;;;;;;;;;;;16.30;34.70;;;;;;8331741;28;20396;-53
2022/02/06 13:29:54;;;;;;;;;;;16.30;34.60;;;;;;8331944;28;19964;-51
2022/02/06 13:34:03;;;;;;;;;;;16.30;34.70;;;;;;8331554;28;20344;-51
2022/02/06 13:38:06;;;;;;;;;;;16.30;34.60;;;;;;8330812;28;19917;-52
2022/02/06 13:42:11;;;;;;;;;;;16.30;34.60;;;;;;8331510;28;19917;-51
2022/02/06 13:46:12;;;;;;;;;;;16.30;34.70;;;;;;8330777;28;20370;-50
2022/02/06 13:50:14;;;;;;;;;;;16.30;34.60;;;;;;8330953;28;19921;-54
2022/02/06 13:54:15;;;;;;;;;;;16.30;34.60;;;;;;8331248;28;20334;-48
2022/02/06 13:58:17;;;;;;;;;;;16.30;34.60;;;;;;8330162;28;19917;-51
2022/02/06 14:02:17;;;;;;;;;;;16.30;34.70;;;;;;8330631;28;20011;-52
2022/02/06 14:06:20;;;;;;;;;;;16.30;34.60;;;;;;8330681;28;20397;-50
2022/02/06 14:10:27;;;;;;;;;;;16.30;34.60;;;;;;8329255;28;20365;-52
2022/02/06 14:14:28;;;;;;;;;;;16.30;34.60;;;;;;8331907;28;19921;-51
2022/02/06 14:18:29;;;;;;;;;;;16.30;34.60;;;;;;8330375;28;19917;-52
2022/02/06 14:22:31;;;;;;;;;;;16.30;34.60;;;;;;8326265;28;19921;-53
2022/02/06 14:26:32;;;;;;;;;;;16.30;34.60;;;;;;8330825;28;19917;-52
2022/02/06 14:30:38;;;;;;;;;;;16.30;34.60;;;;;;8330021;28;20816;-52
2022/02/06 14:34:38;;;;;;;;;;;16.30;34.60;;;;;;8329678;28;19953;-52
2022/02/06 14:38:48;;;;;;;;;;;16.30;34.60;;;;;;8329956;28;19917;-54
2022/02/06 14:42:52;;;;;;;;;;;16.30;34.60;;;;;;8330048;28;20285;-53
2022/02/06 14:46:53;;;;;;;;;;;16.30;34.60;;;;;;8329527;28;19917;-51
2022/02/06 14:50:53;;;;;;;;;;;16.30;34.60;;;;;;8329668;28;20445;-50
2022/02/06 14:54:54;;;;;;;;;;;16.30;34.60;;;;;;8329852;28;20041;-49
2022/02/06 14:58:54;;;;;;;;;;;16.30;34.60;;;;;;8330163;28;19924;-50
2022/02/06 15:02:55;;;;;;;;;;;16.30;34.60;;;;;;8335993;28;19924;-50
2022/02/06 15:06:55;;;;;;;;;;;16.30;34.70;;;;;;8336026;28;19924;-51
2022/02/06 15:10:56;;;;;;;;;;;16.30;34.70;;;;;;8335355;28;19921;-54
2022/02/06 15:14:57;;;;;;;;;;;16.30;34.70;;;;;;8318088;28;19921;-54
2022/02/06 15:19:00;;;;;;;;;;;16.30;34.80;;;;;;8335654;28;19924;-52
2022/02/06 15:23:04;;;;;;;;;;;16.30;34.80;;;;;;8335000;28;19975;-54
2022/02/06 15:27:04;;;;;;;;;;;16.30;34.80;;;;;;8335366;28;19925;-53
2022/02/06 15:31:05;;;;;;;;;;;16.30;34.90;;;;;;8335300;28;20386;-52
2022/02/06 15:35:06;;;;;;;;;;;16.30;34.90;;;;;;8334875;28;19953;-52
2022/02/06 15:39:16;;;;;;;;;;;16.30;35.00;;;;;;8335083;28;19924;-53
2022/02/06 15:43:17;;;;;;;;;;;16.30;35.00;;;;;;8336736;28;19960;-55
2022/02/06 15:47:17;;;;;;;;;;;16.30;35.10;;;;;;8334829;28;20409;-55
2022/02/06 15:51:19;;;;;;;;;;;16.30;35.10;;;;;;8334955;28;20281;-51
2022/02/06 15:55:19;;;;;;;;;;;16.30;35.20;;;;;;8334261;28;19932;-52
2022/02/06 15:59:20;;;;;;;;;;;16.30;35.20;;;;;;8334711;28;19924;-54
2022/02/06 16:03:20;;;;;;;;;;;16.30;35.20;;;;;;8334162;28;19921;-52
2022/02/06 16:07:21;;;;;;;;;;;16.30;35.20;;;;;;8333659;28;20346;-51
2022/02/06 16:11:21;;;;;;;;;;;16.30;35.30;;;;;;8333744;28;20007;-54
2022/02/06 16:15:21;;;;;;;;;;;16.30;35.30;;;;;;8333743;28;19960;-53
2022/02/06 16:19:22;;;;;;;;;;;16.30;35.30;;;;;;8333014;28;20027;-55
2022/02/06 16:23:24;;;;;;;;;;;16.30;35.40;;;;;;8333813;28;19979;-55
2022/02/06 16:27:24;;;;;;;;;;;16.30;35.40;;;;;;8333345;28;19918;-54
2022/02/06 16:31:25;;;;;;;;;;;16.30;35.90;;;;;;8332895;28;19925;-53
2022/02/06 16:35:25;;;;;;;;;;;16.30;35.40;;;;;;8333494;28;19921;-53
2022/02/06 16:39:26;;;;;;;;;;;16.30;35.40;;;;;;8333175;28;20366;-51
2022/02/06 16:43:26;;;;;;;;;;;16.30;35.40;;;;;;8314764;28;20348;-53
2022/02/06 16:47:27;;;;;;;;;;;16.30;35.40;;;;;;8333152;28;19948;-53
2022/02/06 16:51:27;;;;;;;;;;;16.30;35.50;;;;;;8333098;28;19956;-52
2022/02/06 16:55:28;;;;;;;;;;;16.30;35.40;;;;;;8333722;28;20444;-52
2022/02/06 16:59:29;;;;;;;;;;;16.30;35.50;;;;;;8316993;28;19924;-52
2022/02/06 17:03:29;;;;;;;;;;;16.30;35.50;;;;;;8334087;28;19921;-55
2022/02/06 17:07:30;;;;;;;;;;;16.30;35.50;;;;;;8332105;28;19955;-51
2022/02/06 17:11:30;;;;;;;;;;;16.30;35.50;;;;;;8334565;28;19917;-51
2022/02/06 17:15:31;;;;;;;;;;;16.30;35.50;;;;;;8332250;28;20336;-53
2022/02/06 17:19:31;;;;;;;;;;;16.30;35.50;;;;;;8331606;28;19956;-52
2022/02/06 17:23:32;;;;;;;;;;;16.30;35.50;;;;;;8331395;28;19963;-56
2022/02/06 17:27:32;;;;;;;;;;;16.30;35.60;;;;;;8331834;28;19943;-52
2022/02/06 17:31:33;;;;;;;;;;;16.30;35.50;;;;;;8331229;28;19917;-53
2022/02/06 17:35:34;;;;;;;;;;;16.30;35.60;;;;;;8331605;28;19921;-54
2022/02/06 17:39:34;;;;;;;;;;;16.30;35.60;;;;;;8331587;28;20393;-53
2022/02/06 17:43:35;;;;;;;;;;;16.40;35.60;;;;;;8330868;28;19992;-54
2022/02/06 17:47:40;;;;;;;;;;;16.30;35.60;;;;;;8331511;28;19917;-54
2022/02/06 17:51:41;;;;;;;;;;;16.40;35.60;;;;;;8330982;28;19917;-54
2022/02/06 17:55:42;;;;;;;;;;;16.40;35.60;;;;;;8330555;28;20453;-53
2022/02/06 17:59:42;;;;;;;;;;;16.30;35.60;;;;;;8330994;28;19918;-53
2022/02/06 18:03:43;;;;;;;;;;;16.30;35.60;;;;;;8330740;28;19924;-51
2022/02/06 18:07:43;;;;;;;;;;;16.40;35.70;;;;;;8330192;28;19944;-54
2022/02/06 18:11:44;;;;;;;;;;;16.40;35.70;;;;;;8330675;28;19920;-54
2022/02/06 18:15:44;;;;;;;;;;;16.30;35.70;;;;;;8330626;28;20011;-52
2022/02/06 18:19:45;;;;;;;;;;;16.40;35.70;;;;;;8329886;28;19921;-52
2022/02/06 18:23:45;;;;;;;;;;;16.40;35.70;;;;;;8330526;28;19918;-53
2022/02/06 18:27:46;;;;;;;;;;;16.40;35.80;;;;;;8330274;28;19917;-53
2022/02/06 18:31:46;;;;;;;;;;;16.40;35.80;;;;;;8329923;28;19921;-54
2022/02/06 18:35:47;;;;;;;;;;;16.40;35.80;;;;;;8329412;28;19929;-55
2022/02/06 18:39:47;;;;;;;;;;;16.40;35.80;;;;;;8330167;28;19917;-54
2022/02/06 18:43:48;;;;;;;;;;;16.40;35.80;;;;;;8329457;28;19923;-55
2022/02/06 18:47:49;;;;;;;;;;;16.40;35.80;;;;;;8329880;28;20020;-55
2022/02/06 18:51:50;;;;;;;;;;;16.40;35.80;;;;;;8330065;28;19913;-54
2022/02/06 18:55:54;;;;;;;;;;;16.40;35.80;;;;;;8329160;28;20377;-54
2022/02/06 18:59:55;;;;;;;;;;;16.40;35.90;;;;;;8329940;28;19943;-51
2022/02/06 19:03:56;;;;;;;;;;;16.30;35.80;;;;;;8329718;28;19959;-50
2022/02/06 19:07:56;;;;;;;;;;;16.40;35.90;;;;;;8329103;28;19917;-55
2022/02/06 19:11:58;;;;;;;;;;;16.30;35.80;;;;;;8329741;28;19917;-54
2022/02/06 19:15:58;;;;;;;;;;;16.40;35.90;;;;;;8329270;28;19925;-54
2022/02/06 19:20:00;;;;;;;;;;;16.40;35.80;;;;;;8328246;28;21328;-53
2022/02/06 19:24:01;;;;;;;;;;;16.40;35.90;;;;;;8329374;28;19928;-54
2022/02/06 19:28:01;;;;;;;;;;;16.40;35.90;;;;;;8329404;28;19948;-54
2022/02/06 19:32:02;;;;;;;;;;;16.40;35.90;;;;;;8329087;28;19918;-54
2022/02/06 19:36:08;;;;;;;;;;;16.40;35.90;;;;;;8329288;28;19968;-54
2022/02/06 19:40:09;;;;;;;;;;;16.40;35.90;;;;;;8331526;28;20385;-55
2022/02/06 19:44:10;;;;;;;;;;;16.40;35.90;;;;;;8328978;28;19925;-54
2022/02/06 19:48:11;;;;;;;;;;;16.40;35.90;;;;;;8334709;28;19917;-52
2022/02/06 19:52:11;;;;;;;;;;;16.40;35.90;;;;;;8334567;28;20321;-54
2022/02/06 19:56:12;;;;;;;;;;;16.30;35.90;;;;;;8334827;28;19925;-53
2022/02/06 20:00:13;;;;;;;;;;;16.40;35.90;;;;;;8334667;28;20415;-54
2022/02/06 20:04:13;;;;;;;;;;;16.40;35.90;;;;;;8333589;28;19969;-55
2022/02/06 20:08:14;;;;;;;;;;;16.40;35.90;;;;;;8334117;28;20012;-50
2022/02/06 20:12:14;;;;;;;;;;;16.40;35.90;;;;;;8334689;28;20325;-54
2022/02/06 20:16:17;;;;;;;;;;;16.40;35.90;;;;;;8333464;28;19925;-54
2022/02/06 20:20:18;;;;;;;;;;;16.40;35.90;;;;;;8334163;28;19949;-55
2022/02/06 20:24:18;;;;;;;;;;;16.40;36.00;;;;;;8333804;28;19924;-54
2022/02/06 20:28:19;;;;;;;;;;;16.40;35.90;;;;;;8333106;28;19917;-51
2022/02/06 20:32:19;;;;;;;;;;;16.40;36.00;;;;;;8333965;28;19913;-52
2022/02/06 20:36:20;;;;;;;;;;;16.40;36.00;;;;;;8333351;28;19931;-51
2022/02/06 20:40:20;;;;;;;;;;;16.40;36.00;;;;;;8332906;28;19936;-54
2022/02/06 20:44:21;;;;;;;;;;;16.40;36.00;;;;;;8333251;28;19967;-54
2022/02/06 20:48:21;;;;;;;;;;;16.40;36.00;;;;;;8333248;28;19921;-54
2022/02/06 20:52:22;;;;;;;;;;;16.40;36.00;;;;;;8332942;28;19913;-49
2022/02/06 20:56:23;;;;;;;;;;;16.40;36.00;;;;;;8332024;28;19932;-54
2022/02/06 21:00:23;;;;;;;;;;;16.40;36.00;;;;;;8332796;28;20395;-51
2022/02/06 21:04:24;;;;;;;;;;;16.40;36.10;;;;;;8332003;28;20004;-55
2022/02/06 21:08:24;;;;;;;;;;;16.40;36.10;;;;;;8332552;28;19940;-52
2022/02/06 21:12:31;;;;;;;;;;;16.40;36.10;;;;;;8332544;28;19917;-54
2022/02/06 21:16:32;;;;;;;;;;;16.40;36.10;;;;;;8332547;28;20030;-52
2022/02/06 21:20:32;;;;;;;;;;;16.40;36.10;;;;;;8332000;28;19917;-50
2022/02/06 21:24:33;;;;;;;;;;;16.40;36.10;;;;;;8332011;28;19955;-50
2022/02/06 21:28:33;;;;;;;;;;;16.40;36.10;;;;;;8331263;28;19921;-52
2022/02/06 21:32:34;;;;;;;;;;;16.40;36.10;;;;;;8332089;28;19913;-53
2022/02/06 21:36:34;;;;;;;;;;;16.40;36.10;;;;;;8331603;28;20313;-51
2022/02/06 21:40:35;;;;;;;;;;;16.40;36.20;;;;;;8330938;28;19917;-52
2022/02/06 21:44:36;;;;;;;;;;;16.40;36.20;;;;;;8331208;28;20104;-53
2022/02/06 21:48:36;;;;;;;;;;;16.40;36.10;;;;;;8331251;28;20293;-55
2022/02/06 21:52:37;;;;;;;;;;;16.40;36.20;;;;;;8330932;28;20004;-49
2022/02/06 21:56:38;;;;;;;;;;;16.40;36.60;;;;;;8331078;28;20352;-54
2022/02/06 22:00:38;;;;;;;;;;;16.40;36.10;;;;;;8330818;28;19917;-50
2022/02/06 22:04:40;;;;;;;;;;;16.40;36.10;;;;;;8330554;28;19928;-53
2022/02/06 22:08:48;;;;;;;;;;;16.40;36.10;;;;;;8331040;28;19913;-51
2022/02/06 22:29:48;;;;;;;;;;;16.40;36.20;;;;;;8336050;28;19920;-52
2022/02/06 22:33:48;;;;;;;;;;;16.40;36.30;;;;;;8330214;28;19925;-49
2022/02/06 22:37:49;;;;;;;;;;;16.40;36.20;;;;;;8329983;28;20386;-53
2022/02/06 22:41:49;;;;;;;;;;;16.40;36.30;;;;;;8330003;28;19924;-53
2022/02/06 22:45:50;;;;;;;;;;;16.30;36.30;;;;;;8330136;28;20277;-54
2022/02/06 22:49:50;;;;;;;;;;;16.30;36.40;;;;;;8329550;28;19917;-49
2022/02/06 22:53:51;;;;;;;;;;;16.30;36.40;;;;;;8330127;28;20016;-52
2022/02/06 22:57:51;;;;;;;;;;;16.30;36.30;;;;;;8330143;28;19928;-53
2022/02/06 23:01:53;;;;;;;;;;;16.40;36.40;;;;;;8328775;28;19924;-50
2022/02/06 23:05:57;;;;;;;;;;;16.40;36.40;;;;;;8329884;28;19921;-51
2022/02/06 23:09:58;;;;;;;;;;;16.40;36.40;;;;;;8328817;28;19960;-54
2022/02/06 23:14:00;;;;;;;;;;;16.30;36.40;;;;;;8329081;28;20341;-52
2022/02/06 23:18:01;;;;;;;;;;;16.40;36.50;;;;;;8330081;28;20420;-52
2022/02/06 23:22:01;;;;;;;;;;;16.40;36.40;;;;;;8333928;28;19921;-50
2022/02/06 23:26:02;;;;;;;;;;;16.40;36.40;;;;;;8335232;28;20366;-51
2022/02/06 23:30:03;;;;;;;;;;;16.40;36.40;;;;;;8335777;28;19920;-50
2022/02/06 23:34:06;;;;;;;;;;;16.30;36.40;;;;;;8335537;28;19925;-52
2022/02/06 23:38:07;;;;;;;;;;;16.30;36.50;;;;;;8335061;28;20303;-51
2022/02/06 23:42:07;;;;;;;;;;;16.30;36.50;;;;;;8335430;28;20301;-50
2022/02/06 23:46:13;;;;;;;;;;;16.30;36.50;;;;;;8334778;28;20466;-51
2022/02/06 23:50:13;;;;;;;;;;;16.30;36.50;;;;;;8317545;28;19952;-51
2022/02/06 23:54:17;;;;;;;;;;;16.30;36.60;;;;;;8335094;28;19921;-52
